createdAt,value
2022-10-16T00:01:14.982Z,5.50
2022-10-16T00:03:43.258Z,8.03
2022-10-16T00:06:10.668Z,7.90
2022-10-16T00:08:37.554Z,8.03
2022-10-16T00:11:10.216Z,10.57
2022-10-16T00:13:39.302Z,6.40
2022-10-16T00:16:06.253Z,8.00
2022-10-16T00:18:32.632Z,5.57
2022-10-16T00:21:07.023Z,10.07
2022-10-16T00:23:34.230Z,10.87
2022-10-16T00:26:04.930Z,6.47
2022-10-16T00:28:32.123Z,5.93
2022-10-16T00:30:59.033Z,7.03
2022-10-16T00:33:25.421Z,4.73
2022-10-16T00:35:51.724Z,4.40
2022-10-16T00:38:18.185Z,6.07
2022-10-16T00:40:44.801Z,5.43
2022-10-16T00:43:15.250Z,5.07
2022-10-16T00:45:42.257Z,5.20
2022-10-16T00:48:13.592Z,5.43
2022-10-16T00:50:42.269Z,6.27
2022-10-16T00:53:08.562Z,4.50
2022-10-16T00:55:37.659Z,4.73
2022-10-16T00:58:06.621Z,4.60
2022-10-16T01:00:33.156Z,5.37
2022-10-16T01:03:02.785Z,4.77
2022-10-16T01:05:45.466Z,5.13
2022-10-16T01:08:57.935Z,4.30
2022-10-16T01:11:34.721Z,4.30
2022-10-16T01:14:09.860Z,5.33
2022-10-16T01:16:47.941Z,10.53
2022-10-16T01:19:36.009Z,6.43
2022-10-16T01:22:03.593Z,6.13
2022-10-16T01:27:31.130Z,8.03
2022-10-16T01:30:05.457Z,8.73
2022-10-16T01:32:47.542Z,7.13
2022-10-16T01:35:27.950Z,7.23
2022-10-16T01:38:04.073Z,6.33
2022-10-16T01:40:33.595Z,7.47
2022-10-16T01:43:06.198Z,5.80
2022-10-16T01:45:33.824Z,4.20
2022-10-16T01:48:05.062Z,6.40
2022-10-16T01:50:35.708Z,3.93
2022-10-16T01:53:03.918Z,4.20
2022-10-16T01:55:34.612Z,5.90
2022-10-16T01:58:03.489Z,5.30
2022-10-16T02:00:30.902Z,5.93
2022-10-16T02:03:01.624Z,3.83
2022-10-16T02:05:47.054Z,4.90
2022-10-16T02:08:13.638Z,4.20
2022-10-16T02:10:40.257Z,4.83
2022-10-16T02:13:11.445Z,4.30
2022-10-16T02:15:37.872Z,3.80
2022-10-16T02:18:06.669Z,6.47
2022-10-16T02:21:16.627Z,4.47
2022-10-16T02:24:06.580Z,4.00
2022-10-16T02:26:44.520Z,4.70
2022-10-16T02:29:15.150Z,3.33
2022-10-16T02:31:44.966Z,3.47
2022-10-16T02:34:12.848Z,4.90
2022-10-16T02:36:41.701Z,5.87
2022-10-16T02:39:08.930Z,3.70
2022-10-16T02:41:35.237Z,5.23
2022-10-16T02:44:01.557Z,4.17
2022-10-16T02:46:27.926Z,4.83
2022-10-16T02:48:54.205Z,3.73
2022-10-16T02:51:20.500Z,3.90
2022-10-16T02:53:46.801Z,5.00
2022-10-16T02:56:13.221Z,6.30
2022-10-16T02:58:39.562Z,3.70
2022-10-16T03:01:05.995Z,5.67
2022-10-16T03:03:32.463Z,4.63
2022-10-16T03:05:58.739Z,3.60
2022-10-16T03:08:26.059Z,5.30
2022-10-16T03:10:52.935Z,6.40
2022-10-16T03:13:21.312Z,6.03
2022-10-16T03:15:47.826Z,3.57
2022-10-16T03:18:14.277Z,5.57
2022-10-16T03:20:40.853Z,4.23
2022-10-16T03:23:09.054Z,3.03
2022-10-16T03:25:35.540Z,3.30
2022-10-16T03:28:02.040Z,3.67
2022-10-16T03:30:28.502Z,3.30
2022-10-16T03:32:55.146Z,3.57
2022-10-16T03:35:23.020Z,3.70
2022-10-16T03:37:49.364Z,5.80
2022-10-16T03:40:15.982Z,9.60
2022-10-16T03:42:43.505Z,5.20
2022-10-16T03:45:10.541Z,3.70
2022-10-16T03:47:36.998Z,4.43
2022-10-16T03:50:04.730Z,3.80
2022-10-16T03:52:31.362Z,3.70
2022-10-16T03:54:58.537Z,3.90
2022-10-16T03:57:25.760Z,3.87
2022-10-16T03:59:52.274Z,5.00
2022-10-16T04:02:18.605Z,4.33
2022-10-16T04:04:44.867Z,4.40
2022-10-16T04:07:11.227Z,3.67
2022-10-16T04:09:37.580Z,5.03
2022-10-16T04:12:03.954Z,4.93
2022-10-16T04:14:30.238Z,5.73
2022-10-16T04:16:56.520Z,3.63
2022-10-16T04:19:22.821Z,3.50
2022-10-16T04:21:49.122Z,4.97
2022-10-16T04:24:15.403Z,4.30
2022-10-16T04:26:41.732Z,4.40
2022-10-16T04:29:08.118Z,5.27
2022-10-16T04:31:34.685Z,3.90
2022-10-16T04:34:00.949Z,6.23
2022-10-16T04:36:29.216Z,4.50
2022-10-16T04:38:55.737Z,3.60
2022-10-16T04:41:22.019Z,5.60
2022-10-16T04:43:48.457Z,4.77
2022-10-16T04:46:14.810Z,4.17
2022-10-16T04:48:41.089Z,6.13
2022-10-16T04:51:07.473Z,4.00
2022-10-16T04:53:34.358Z,3.93
2022-10-16T04:56:00.784Z,5.00
2022-10-16T04:58:27.089Z,4.93
2022-10-16T05:00:53.559Z,4.63
2022-10-16T05:03:20.047Z,3.63
2022-10-16T05:05:47.264Z,4.77
2022-10-16T05:08:15.045Z,5.67
2022-10-16T05:10:45.816Z,8.00
2022-10-16T05:13:13.005Z,3.50
2022-10-16T05:15:39.312Z,9.20
2022-10-16T05:18:05.863Z,6.23
2022-10-16T05:20:32.259Z,7.13
2022-10-16T05:22:58.622Z,4.40
2022-10-16T05:25:25.116Z,3.50
2022-10-16T05:27:51.472Z,3.73
2022-10-16T05:30:19.013Z,4.23
2022-10-16T05:32:49.720Z,5.57
2022-10-16T05:35:17.342Z,4.70
2022-10-16T05:37:43.637Z,3.30
2022-10-16T05:40:10.921Z,7.13
2022-10-16T05:42:38.062Z,4.27
2022-10-16T05:45:06.202Z,5.53
2022-10-16T05:47:32.534Z,4.13
2022-10-16T05:49:58.826Z,3.13
2022-10-16T05:52:25.137Z,3.37
2022-10-16T05:54:51.475Z,4.40
2022-10-16T05:57:17.774Z,3.43
2022-10-16T05:59:44.228Z,4.20
2022-10-16T06:02:14.613Z,4.23
2022-10-16T06:04:41.118Z,4.10
2022-10-16T06:07:07.548Z,4.70
2022-10-16T06:09:33.838Z,5.00
2022-10-16T06:12:00.158Z,4.80
2022-10-16T06:14:26.589Z,9.10
2022-10-16T06:16:52.864Z,11.40
2022-10-16T06:19:19.422Z,8.10
2022-10-16T06:21:46.097Z,10.37
2022-10-16T06:24:12.462Z,5.23
2022-10-16T06:26:39.456Z,4.50
2022-10-16T06:29:06.233Z,5.17
2022-10-16T06:31:34.207Z,5.60
2022-10-16T06:34:00.988Z,5.97
2022-10-16T06:36:27.585Z,4.30
2022-10-16T06:38:54.364Z,4.10
2022-10-16T06:41:22.634Z,4.33
2022-10-16T06:43:49.437Z,6.03
2022-10-16T06:46:19.479Z,4.53
2022-10-16T06:48:46.110Z,4.97
2022-10-16T06:51:17.779Z,3.53
2022-10-16T06:54:02.408Z,4.90
2022-10-16T06:56:31.625Z,4.83
2022-10-16T06:58:58.040Z,6.53
2022-10-16T07:01:25.449Z,4.40
2022-10-16T07:03:52.332Z,15.20
2022-10-16T07:06:20.642Z,4.60
2022-10-16T07:08:47.996Z,5.13
2022-10-16T07:11:17.799Z,4.60
2022-10-16T07:13:49.334Z,4.30
2022-10-16T07:16:21.348Z,6.97
2022-10-16T07:18:49.426Z,7.60
2022-10-16T07:21:26.959Z,7.27
2022-10-16T07:23:54.615Z,4.90
2022-10-16T07:26:21.705Z,8.63
2022-10-16T07:28:48.478Z,5.63
2022-10-16T07:31:18.489Z,5.13
2022-10-16T07:33:46.120Z,4.80
2022-10-16T07:36:16.315Z,5.57
2022-10-16T07:38:46.005Z,6.63
2022-10-16T07:41:15.072Z,4.50
2022-10-16T07:43:46.154Z,5.17
2022-10-16T07:46:12.881Z,4.63
2022-10-16T07:48:39.240Z,4.20
2022-10-16T07:51:07.824Z,4.40
2022-10-16T07:53:34.712Z,4.77
2022-10-16T07:56:06.685Z,5.10
2022-10-16T07:58:34.019Z,4.43
2022-10-16T08:01:05.158Z,4.97
2022-10-16T08:03:34.493Z,8.10
2022-10-16T08:06:02.485Z,5.10
2022-10-16T08:08:29.071Z,4.87
2022-10-16T08:10:55.687Z,4.97
2022-10-16T08:13:22.382Z,4.70
2022-10-16T08:15:48.916Z,4.00
2022-10-16T08:18:15.939Z,4.73
2022-10-16T08:20:43.849Z,3.30
2022-10-16T08:23:12.874Z,3.90
2022-10-16T08:25:39.642Z,3.60
2022-10-16T08:28:07.102Z,3.40
2022-10-16T08:30:34.404Z,3.43
2022-10-16T08:33:01.065Z,4.00
2022-10-16T08:35:27.481Z,3.93
2022-10-16T08:37:53.803Z,6.43
2022-10-16T08:42:59.098Z,3.90
2022-10-16T08:45:44.716Z,2.50
2022-10-16T08:48:28.509Z,3.60
2022-10-16T08:50:55.112Z,2.33
2022-10-16T08:53:38.789Z,3.30
2022-10-16T08:56:05.257Z,3.50
2022-10-16T08:58:31.619Z,4.33
2022-10-16T09:01:01.285Z,4.07
2022-10-16T09:03:39.547Z,2.20
2022-10-16T09:06:13.376Z,2.27
2022-10-16T09:09:10.937Z,2.10
2022-10-16T09:12:10.866Z,4.70
2022-10-16T09:15:02.105Z,2.53
2022-10-16T09:17:37.774Z,2.33
2022-10-16T09:20:19.458Z,2.60
2022-10-16T09:22:46.040Z,2.20
2022-10-16T09:25:22.718Z,3.03
2022-10-16T09:27:52.853Z,2.27
2022-10-16T09:30:21.437Z,6.47
2022-10-16T09:32:52.496Z,1.40
2022-10-16T09:35:27.450Z,1.60
2022-10-16T09:37:55.325Z,2.80
2022-10-16T09:40:29.297Z,1.50
2022-10-16T09:43:02.721Z,2.77
2022-10-16T09:45:29.114Z,1.93
2022-10-16T09:47:57.726Z,2.20
2022-10-16T09:50:29.093Z,1.97
2022-10-16T09:53:15.833Z,2.00
2022-10-16T09:55:53.001Z,5.00
2022-10-16T09:58:23.270Z,2.13
2022-10-16T10:00:51.980Z,4.23
2022-10-16T10:03:35.713Z,5.80
2022-10-16T10:06:18.076Z,2.23
2022-10-16T10:08:59.483Z,1.77
2022-10-16T10:11:51.950Z,3.93
2022-10-16T10:14:39.316Z,1.60
2022-10-16T10:17:05.561Z,3.90
2022-10-16T10:19:39.231Z,1.77
2022-10-16T10:22:33.256Z,1.60
2022-10-16T10:25:14.680Z,2.13
2022-10-16T10:27:52.081Z,1.50
2022-10-16T10:30:38.696Z,2.47
2022-10-16T10:33:21.586Z,2.73
2022-10-16T10:36:25.669Z,6.33
2022-10-16T10:38:58.450Z,1.60
2022-10-16T10:41:43.092Z,2.00
2022-10-16T10:44:25.509Z,3.20
2022-10-16T10:46:57.832Z,3.20
2022-10-16T10:49:51.546Z,3.60
2022-10-16T10:52:44.068Z,3.90
2022-10-16T10:55:17.087Z,4.07
2022-10-16T10:57:53.284Z,1.57
2022-10-16T11:00:49.427Z,1.30
2022-10-16T11:03:24.753Z,1.80
2022-10-16T11:05:59.377Z,2.37
2022-10-16T11:08:51.285Z,1.50
2022-10-16T11:11:26.021Z,1.67
2022-10-16T11:14:01.062Z,2.80
2022-10-16T11:16:36.481Z,1.30
2022-10-16T11:19:24.463Z,1.40
2022-10-16T11:22:02.169Z,3.70
2022-10-16T11:24:42.329Z,2.70
2022-10-16T11:27:13.503Z,2.03
2022-10-16T11:29:51.781Z,1.30
2022-10-16T11:32:28.258Z,6.00
2022-10-16T11:35:00.855Z,2.60
2022-10-16T11:37:45.161Z,1.97
2022-10-16T11:40:32.218Z,2.10
2022-10-16T11:43:07.245Z,1.60
2022-10-16T11:45:43.253Z,2.20
2022-10-16T11:48:15.747Z,1.80
2022-10-16T11:50:53.486Z,3.30
2022-10-16T11:53:39.936Z,2.70
2022-10-16T11:56:06.658Z,2.80
2022-10-16T11:58:39.966Z,2.30
2022-10-16T12:01:32.721Z,1.43
2022-10-16T12:04:16.437Z,2.53
2022-10-16T12:06:53.317Z,1.90
2022-10-16T12:09:28.809Z,1.97
2022-10-16T12:11:55.669Z,2.47
2022-10-16T12:14:34.980Z,2.90
2022-10-16T12:17:23.117Z,4.43
2022-10-16T12:20:24.004Z,1.60
2022-10-16T12:22:55.595Z,3.03
2022-10-16T12:25:31.739Z,4.97
2022-10-16T12:28:01.121Z,3.63
2022-10-16T12:30:32.389Z,2.33
2022-10-16T12:33:07.663Z,1.70
2022-10-16T12:35:44.271Z,1.90
2022-10-16T12:38:19.046Z,4.20
2022-10-16T12:40:55.166Z,2.37
2022-10-16T12:43:23.894Z,1.57
2022-10-16T12:46:09.569Z,1.77
2022-10-16T12:48:48.850Z,2.60
2022-10-16T12:51:26.133Z,1.77
2022-10-16T12:54:07.829Z,2.70
2022-10-16T12:57:11.894Z,3.33
2022-10-16T12:59:47.181Z,1.40
2022-10-16T13:02:35.397Z,1.53
2022-10-16T13:05:23.137Z,1.90
2022-10-16T13:08:10.361Z,2.83
2022-10-16T13:10:36.777Z,3.20
2022-10-16T13:13:11.515Z,7.93
2022-10-16T13:15:54.797Z,2.03
2022-10-16T13:18:39.736Z,2.70
2022-10-16T13:21:30.527Z,3.77
2022-10-16T13:24:10.874Z,1.57
2022-10-16T13:26:55.515Z,3.17
2022-10-16T13:29:22.365Z,2.10
2022-10-16T13:31:48.960Z,5.77
2022-10-16T13:34:22.253Z,2.90
2022-10-16T13:36:53.486Z,1.60
2022-10-16T13:39:29.031Z,4.90
2022-10-16T13:42:04.853Z,4.13
2022-10-16T13:44:47.245Z,1.77
2022-10-16T13:47:22.224Z,3.90
2022-10-16T13:50:04.629Z,3.13
2022-10-16T13:52:31.450Z,1.90
2022-10-16T13:55:01.022Z,1.60
2022-10-16T13:57:29.041Z,2.63
2022-10-16T13:59:55.510Z,5.23
2022-10-16T14:02:28.076Z,2.10
2022-10-16T14:04:55.462Z,2.93
2022-10-16T14:07:28.068Z,1.90
2022-10-16T14:09:56.042Z,2.28
2022-10-16T14:12:27.110Z,3.90
2022-10-16T14:14:56.337Z,2.60
2022-10-16T14:17:29.360Z,2.70
2022-10-16T14:20:00.997Z,2.60
2022-10-16T14:22:41.666Z,1.67
2022-10-16T14:25:20.388Z,3.33
2022-10-16T14:28:17.690Z,2.20
2022-10-16T14:30:59.012Z,3.10
2022-10-16T14:33:35.061Z,1.60
2022-10-16T14:36:12.442Z,3.33
2022-10-16T14:38:41.265Z,2.10
2022-10-16T14:41:07.964Z,3.37
2022-10-16T14:43:40.941Z,2.33
2022-10-16T14:48:51.751Z,3.17
2022-10-16T14:51:19.860Z,3.43
2022-10-16T14:53:46.729Z,5.60
2022-10-16T14:56:24.860Z,1.60
2022-10-16T14:58:52.424Z,2.83
2022-10-16T15:01:19.244Z,2.60
2022-10-16T15:03:45.632Z,4.73
2022-10-16T15:06:13.226Z,4.93
2022-10-16T15:08:40.393Z,2.93
2022-10-16T15:11:13.414Z,3.53
2022-10-16T15:13:40.176Z,3.87
2022-10-16T15:16:11.477Z,3.00
2022-10-16T15:18:37.795Z,1.97
2022-10-16T15:21:04.450Z,2.33
2022-10-16T15:23:30.810Z,2.00
2022-10-16T15:25:57.765Z,2.23
2022-10-16T15:28:26.645Z,3.37
2022-10-16T15:30:55.408Z,6.40
2022-10-16T15:33:25.317Z,1.67
2022-10-16T15:35:52.716Z,2.17
2022-10-16T15:38:20.364Z,2.60
2022-10-16T15:40:47.445Z,5.70
2022-10-16T15:43:13.794Z,3.67
2022-10-16T15:45:40.465Z,4.50
2022-10-16T15:48:06.819Z,3.07
2022-10-16T15:50:33.742Z,4.53
2022-10-16T15:53:00.098Z,3.17
2022-10-16T15:55:26.657Z,2.17
2022-10-16T15:57:52.973Z,2.10
2022-10-16T16:00:22.772Z,4.40
2022-10-16T16:02:53.801Z,2.07
2022-10-16T16:05:22.330Z,1.60
2022-10-16T16:07:49.469Z,3.97
2022-10-16T16:10:16.761Z,3.50
2022-10-16T16:12:43.389Z,4.80
2022-10-16T16:15:10.954Z,2.90
2022-10-16T16:17:37.649Z,1.80
2022-10-16T16:20:05.985Z,2.37
2022-10-16T16:22:32.393Z,2.43
2022-10-16T16:24:58.755Z,2.70
2022-10-16T16:27:26.275Z,4.13
2022-10-16T16:29:54.130Z,2.10
2022-10-16T16:32:20.433Z,4.60
2022-10-16T16:34:46.886Z,4.50
2022-10-16T16:37:13.414Z,3.30
2022-10-16T16:39:39.772Z,3.60
2022-10-16T16:42:07.832Z,7.23
2022-10-16T16:44:36.997Z,3.27
2022-10-16T16:47:04.901Z,3.77
2022-10-16T16:49:31.386Z,3.87
2022-10-16T16:51:57.736Z,1.83
2022-10-16T16:54:24.283Z,3.57
2022-10-16T16:56:50.664Z,3.83
2022-10-16T16:59:20.564Z,4.13
2022-10-16T17:01:48.467Z,2.50
2022-10-16T17:04:16.626Z,2.10
2022-10-16T17:06:43.595Z,4.30
2022-10-16T17:09:13.586Z,5.30
2022-10-16T17:11:42.331Z,3.23
2022-10-16T17:14:09.061Z,3.20
2022-10-16T17:16:37.576Z,11.30
2022-10-16T17:19:07.160Z,3.27
2022-10-16T17:21:34.246Z,2.07
2022-10-16T17:24:01.762Z,3.10
2022-10-16T17:26:28.976Z,6.87
2022-10-16T17:28:57.636Z,2.60
2022-10-16T17:31:32.509Z,4.07
2022-10-16T17:34:00.425Z,4.57
2022-10-16T17:36:30.745Z,2.97
2022-10-16T17:39:04.204Z,3.43
2022-10-16T17:41:31.166Z,6.80
2022-10-16T17:43:57.463Z,7.83
2022-10-16T17:46:24.384Z,11.13
2022-10-16T17:48:56.239Z,2.77
2022-10-16T17:51:25.640Z,3.37
2022-10-16T17:53:54.359Z,3.50
2022-10-16T17:56:21.276Z,3.03
2022-10-16T17:58:53.130Z,2.77
2022-10-16T18:01:23.136Z,4.17
2022-10-16T18:04:01.710Z,2.13
2022-10-16T18:06:29.231Z,2.70
2022-10-16T18:08:57.774Z,4.00
2022-10-16T18:11:24.887Z,4.90
2022-10-16T18:13:55.828Z,8.27
2022-10-16T18:16:23.146Z,4.50
2022-10-16T18:18:50.311Z,3.03
2022-10-16T18:21:19.418Z,3.90
2022-10-16T18:23:50.927Z,3.83
2022-10-16T18:26:19.362Z,8.93
2022-10-16T18:28:45.812Z,3.80
2022-10-16T18:31:14.817Z,3.50
2022-10-16T18:33:47.819Z,4.30
2022-10-16T18:36:15.403Z,4.47
2022-10-16T18:38:41.725Z,3.10
2022-10-16T18:41:08.009Z,2.87
2022-10-16T18:43:35.573Z,3.80
2022-10-16T18:46:05.880Z,3.17
2022-10-16T18:48:32.799Z,3.30
2022-10-16T18:51:09.714Z,3.53
2022-10-16T18:53:37.762Z,3.17
2022-10-16T18:56:04.692Z,3.03
2022-10-16T18:58:31.197Z,3.23
2022-10-16T19:01:03.595Z,3.30
2022-10-16T19:03:30.232Z,3.90
2022-10-16T19:06:00.194Z,4.43
2022-10-16T19:08:26.469Z,4.00
2022-10-16T19:10:52.755Z,3.00
2022-10-16T19:13:19.051Z,2.90
2022-10-16T19:15:53.183Z,5.47
2022-10-16T19:18:26.966Z,2.47
2022-10-16T19:20:53.834Z,5.53
2022-10-16T19:23:20.961Z,5.80
2022-10-16T19:25:47.368Z,3.33
2022-10-16T19:28:14.275Z,2.87
2022-10-16T19:30:42.715Z,2.63
2022-10-16T19:33:09.041Z,4.57
2022-10-16T19:35:35.436Z,3.90
2022-10-16T19:38:01.731Z,4.63
2022-10-16T19:40:28.491Z,5.97
2022-10-16T19:42:54.975Z,2.93
2022-10-16T19:45:21.842Z,3.57
2022-10-16T19:47:48.265Z,3.50
2022-10-16T19:50:16.233Z,3.43
2022-10-16T19:52:42.931Z,5.03
2022-10-16T19:55:09.289Z,5.50
2022-10-16T20:00:09.108Z,3.60
2022-10-16T20:02:36.097Z,4.27
2022-10-16T20:05:02.417Z,4.07
2022-10-16T20:07:31.297Z,6.43
2022-10-16T20:10:00.300Z,6.30
2022-10-16T20:12:26.640Z,4.60
2022-10-16T20:14:52.958Z,4.70
2022-10-16T20:17:19.288Z,3.60
2022-10-16T20:19:45.645Z,3.87
2022-10-16T20:22:11.918Z,4.03
2022-10-16T20:24:38.280Z,4.90
2022-10-16T20:27:04.577Z,4.30
2022-10-16T20:29:30.930Z,8.73
2022-10-16T20:31:57.240Z,4.63
2022-10-16T20:34:23.529Z,4.80
2022-10-16T20:36:50.703Z,5.80
2022-10-16T20:39:17.165Z,4.67
2022-10-16T20:41:43.481Z,5.00
2022-10-16T20:44:09.779Z,5.07
2022-10-16T20:46:36.121Z,4.80
2022-10-16T20:49:11.316Z,4.70
2022-10-16T20:51:43.733Z,5.27
2022-10-16T20:54:11.521Z,10.53
2022-10-16T20:56:37.892Z,8.40
2022-10-16T20:59:05.316Z,4.57
2022-10-16T21:01:31.874Z,4.67
2022-10-16T21:04:01.629Z,4.83
2022-10-16T21:06:29.089Z,7.33
2022-10-16T21:08:55.569Z,5.43
2022-10-16T21:11:23.375Z,5.70
2022-10-16T21:13:52.326Z,8.73
2022-10-16T21:16:18.678Z,6.00
2022-10-16T21:18:45.100Z,7.77
2022-10-16T21:21:19.714Z,5.27
2022-10-16T21:23:46.461Z,6.13
2022-10-16T21:26:12.793Z,7.00
2022-10-16T21:28:39.239Z,6.23
2022-10-16T21:31:18.825Z,6.10
2022-10-16T21:33:46.022Z,8.70
2022-10-16T21:36:19.105Z,9.70
2022-10-16T21:41:25.315Z,7.87
2022-10-16T21:43:52.032Z,7.10
2022-10-16T21:46:23.505Z,7.83
2022-10-16T21:48:53.341Z,8.87
2022-10-16T21:51:19.803Z,10.60
2022-10-16T21:53:46.112Z,7.63
2022-10-16T21:56:17.201Z,7.40
2022-10-16T21:58:44.908Z,10.20
2022-10-16T22:01:14.187Z,7.10
2022-10-16T22:03:40.639Z,9.00
2022-10-16T22:06:08.453Z,7.50
2022-10-16T22:08:37.901Z,7.70
2022-10-16T22:11:27.257Z,10.40
2022-10-16T22:13:56.704Z,8.10
2022-10-16T22:16:25.368Z,7.40
2022-10-16T22:18:56.555Z,12.63
2022-10-16T22:21:23.746Z,10.10
2022-10-16T22:23:50.098Z,7.70
2022-10-16T22:26:16.420Z,7.20
2022-10-16T22:28:43.232Z,7.60
2022-10-16T22:31:12.024Z,7.60
2022-10-16T22:33:38.826Z,7.90
2022-10-16T22:36:07.501Z,7.57
2022-10-16T22:38:35.538Z,8.50
2022-10-16T22:41:13.162Z,7.60
2022-10-16T22:43:42.970Z,9.13
2022-10-16T22:46:14.475Z,8.30
2022-10-16T22:48:40.913Z,11.27
2022-10-16T22:51:07.789Z,8.20
2022-10-16T22:53:34.450Z,8.10
2022-10-16T22:56:00.887Z,11.17
2022-10-16T22:58:27.241Z,8.13
2022-10-16T23:00:53.697Z,11.20
2022-10-16T23:03:20.161Z,9.23
2022-10-16T23:05:46.509Z,7.83
2022-10-16T23:08:12.818Z,23.63
2022-10-16T23:10:40.797Z,8.83
2022-10-16T23:13:07.112Z,9.13
2022-10-16T23:15:33.554Z,8.47
2022-10-16T23:17:59.881Z,10.10
2022-10-16T23:20:26.261Z,12.63
2022-10-16T23:22:52.553Z,9.40
2022-10-16T23:25:18.845Z,12.30
2022-10-16T23:27:45.981Z,10.00
2022-10-16T23:30:12.390Z,9.00
2022-10-16T23:32:38.760Z,11.40
2022-10-16T23:35:05.543Z,8.83
2022-10-16T23:37:31.902Z,8.97
2022-10-16T23:39:58.224Z,9.33
2022-10-16T23:42:24.841Z,9.67
2022-10-16T23:44:51.351Z,9.70
2022-10-16T23:47:17.669Z,9.33
2022-10-16T23:49:43.989Z,17.57
2022-10-16T23:52:10.279Z,10.07
2022-10-16T23:54:36.626Z,10.00
2022-10-16T23:57:03.070Z,9.20
2022-10-16T23:59:29.354Z,10.80
